Time;durP1;ratioP1;P1;durP2;ratioP2;P2;SDS_P1;SDS_P2;PMS_P1;PMS_P2;Temp;Humidity;BMP_temperature;BMP_pressure;BME280_temperature;BME280_humidity;BME280_pressure;Samples;Min_cycle;Max_cycle;Signal;HPM_P1;HPM_P2
2021/03/17 00:02:14;;;;;;;11.97;9.30;;;8.40;91.30;;;;;;5094375;28;20448;-73
2021/03/17 00:04:40;;;;;;;11.37;10.23;;;8.40;91.30;;;;;;5095473;28;20442;-73
2021/03/17 00:07:07;;;;;;;12.33;8.93;;;8.40;91.40;;;;;;5094997;28;20506;-73
2021/03/17 00:09:33;;;;;;;10.67;8.23;;;8.40;91.40;;;;;;5095260;28;20460;-73
2021/03/17 00:12:00;;;;;;;10.80;9.13;;;8.40;91.30;;;;;;5095294;28;20452;-72
2021/03/17 00:14:29;;;;;;;12.50;11.23;;;8.40;91.40;;;;;;5095467;28;20448;-72
2021/03/17 00:16:55;;;;;;;9.97;8.97;;;8.40;91.40;;;;;;5095072;28;20444;-72
2021/03/17 00:19:23;;;;;;;11.07;9.17;;;8.40;91.50;;;;;;5094170;28;20470;-72
2021/03/17 00:21:49;;;;;;;14.00;11.17;;;8.40;91.50;;;;;;5095162;28;20452;-72
2021/03/17 00:24:16;;;;;;;11.37;9.37;;;8.40;91.50;;;;;;5095188;28;20435;-72
2021/03/17 00:26:43;;;;;;;12.80;11.60;;;8.40;91.60;;;;;;5094978;28;20480;-72
2021/03/17 00:29:10;;;;;;;11.90;10.30;;;8.40;91.70;;;;;;5094581;28;20458;-73
2021/03/17 00:31:38;;;;;;;11.87;10.43;;;8.40;91.70;;;;;;5094981;28;20447;-73
2021/03/17 00:34:04;;;;;;;14.67;12.80;;;8.40;91.70;;;;;;5094646;28;20953;-73
2021/03/17 00:36:30;;;;;;;14.60;11.90;;;8.40;91.70;;;;;;5094808;28;20443;-73
2021/03/17 00:38:57;;;;;;;13.17;11.80;;;8.40;91.70;;;;;;5094742;28;20428;-73
2021/03/17 00:41:23;;;;;;;13.93;12.43;;;8.30;91.70;;;;;;5094799;28;20444;-73
2021/03/17 00:43:49;;;;;;;15.03;13.53;;;8.30;91.70;;;;;;5094761;28;20431;-73
2021/03/17 00:46:16;;;;;;;11.17;9.93;;;8.30;91.70;;;;;;5094408;28;20888;-73
2021/03/17 00:48:43;;;;;;;11.40;10.37;;;8.30;91.70;;;;;;5094898;28;20480;-73
2021/03/17 00:51:09;;;;;;;13.20;11.80;;;8.30;91.70;;;;;;5094168;28;20471;-73
2021/03/17 00:53:36;;;;;;;13.83;11.80;;;8.30;91.60;;;;;;5094301;28;20431;-73
2021/03/17 00:56:02;;;;;;;10.70;9.60;;;8.30;91.60;;;;;;5094512;28;20443;-73
2021/03/17 00:58:28;;;;;;;11.10;10.00;;;8.20;91.60;;;;;;5094486;28;20443;-73
2021/03/17 01:00:56;;;;;;;12.97;11.70;;;8.20;91.60;;;;;;5094044;28;20989;-73
2021/03/17 01:03:23;;;;;;;11.43;10.33;;;8.20;91.70;;;;;;5094043;28;20441;-73
2021/03/17 01:05:50;;;;;;;12.50;11.20;;;8.20;91.70;;;;;;5094180;28;20462;-73
2021/03/17 01:08:16;;;;;;;9.60;8.30;;;8.20;91.60;;;;;;5094182;28;20486;-73
2021/03/17 01:10:45;;;;;;;10.10;9.10;;;8.20;91.70;;;;;;5093795;28;20805;-73
2021/03/17 01:13:12;;;;;;;8.83;8.03;;;8.20;91.70;;;;;;5094150;28;20801;-73
2021/03/17 01:15:39;;;;;;;9.27;8.27;;;8.20;91.60;;;;;;5093981;28;21011;-73
2021/03/17 01:18:06;;;;;;;10.03;8.10;;;8.20;91.50;;;;;;5093802;28;20424;-73
2021/03/17 01:20:34;;;;;;;8.20;7.40;;;8.20;91.40;;;;;;5094029;28;20473;-73
2021/03/17 01:23:01;;;;;;;7.73;7.03;;;8.20;91.30;;;;;;5093989;28;20443;-73
2021/03/17 01:25:30;;;;;;;7.87;7.10;;;8.20;91.30;;;;;;5093998;28;20496;-73
2021/03/17 01:27:57;;;;;;;8.40;7.37;;;8.20;91.30;;;;;;5093902;28;20508;-73
2021/03/17 01:30:27;;;;;;;8.73;7.90;;;8.20;91.30;;;;;;5093282;28;21000;-73
2021/03/17 01:32:54;;;;;;;9.77;8.20;;;8.20;91.30;;;;;;5093893;28;20431;-73
2021/03/17 01:35:20;;;;;;;8.00;7.07;;;8.20;91.30;;;;;;5093844;28;20444;-73
2021/03/17 01:37:47;;;;;;;7.20;6.23;;;8.20;91.40;;;;;;5093681;28;20444;-73
2021/03/17 01:40:16;;;;;;;6.37;5.37;;;8.20;91.40;;;;;;5093647;28;20471;-73
2021/03/17 01:42:42;;;;;;;7.93;6.13;;;8.20;91.40;;;;;;5093644;28;20816;-73
2021/03/17 01:45:14;;;;;;;6.37;5.20;;;8.20;91.40;;;;;;5093780;28;20440;-73
2021/03/17 01:47:41;;;;;;;5.80;5.20;;;8.20;91.40;;;;;;5093674;28;20464;-73
2021/03/17 01:50:11;;;;;;;5.67;4.70;;;8.10;91.20;;;;;;5093647;28;20470;-73
2021/03/17 01:52:38;;;;;;;6.93;4.23;;;8.20;91.20;;;;;;5092470;28;20447;-73
2021/03/17 01:55:06;;;;;;;4.97;4.57;;;8.10;91.10;;;;;;5093649;28;20444;-73
2021/03/17 01:57:34;;;;;;;7.13;4.80;;;8.10;91.10;;;;;;5093123;28;20436;-73
2021/03/17 02:00:00;;;;;;;6.10;5.50;;;8.10;91.00;;;;;;5093529;28;20513;-73
2021/03/17 02:02:27;;;;;;;5.90;5.40;;;8.20;91.10;;;;;;5093550;28;20447;-73
2021/03/17 02:04:54;;;;;;;6.57;5.87;;;8.10;91.10;;;;;;5093448;28;20436;-73
2021/03/17 02:07:20;;;;;;;6.10;5.57;;;8.10;91.10;;;;;;5093430;28;20556;-73
2021/03/17 02:09:46;;;;;;;6.40;5.83;;;8.10;91.20;;;;;;5093396;28;20464;-73
2021/03/17 02:12:24;;;;;;;6.60;5.97;;;8.10;91.10;;;;;;5093473;28;20451;-73
2021/03/17 02:15:08;;;;;;;5.83;5.03;;;8.10;91.10;;;;;;5093569;28;20435;-73
2021/03/17 02:17:37;;;;;;;7.00;5.83;;;8.00;91.00;;;;;;5093162;28;20898;-73
2021/03/17 02:20:28;;;;;;;6.73;6.03;;;8.00;91.00;;;;;;5093302;28;20821;-73
2021/03/17 02:22:58;;;;;;;7.33;6.63;;;8.00;91.00;;;;;;5093455;28;20431;-73
2021/03/17 02:25:48;;;;;;;7.20;6.00;;;7.90;91.10;;;;;;5093341;28;20762;-73
2021/03/17 02:28:24;;;;;;;6.60;6.00;;;7.90;91.10;;;;;;5092927;28;20867;-73
2021/03/17 02:31:20;;;;;;;5.90;5.40;;;7.90;91.20;;;;;;5093249;28;20472;-73
2021/03/17 02:33:55;;;;;;;7.27;6.40;;;7.80;91.20;;;;;;5066196;28;20510;-73
2021/03/17 02:36:27;;;;;;;6.77;6.07;;;7.80;91.20;;;;;;5093266;28;20473;-73
2021/03/17 02:39:01;;;;;;;6.50;5.70;;;7.80;91.20;;;;;;5093241;28;20424;-73
2021/03/17 02:41:33;;;;;;;6.43;5.30;;;7.70;91.30;;;;;;5094650;28;20427;-72
2021/03/17 02:44:02;;;;;;;5.23;4.70;;;7.70;91.20;;;;;;5097111;28;20785;-72
2021/03/17 02:46:29;;;;;;;5.70;4.67;;;7.70;91.10;;;;;;5097018;28;20435;-72
2021/03/17 02:49:00;;;;;;;5.07;4.57;;;7.60;91.10;;;;;;5097043;28;20483;-72
2021/03/17 02:51:33;;;;;;;5.80;4.70;;;7.60;91.10;;;;;;5097002;28;20424;-72
2021/03/17 02:54:02;;;;;;;7.60;4.93;;;7.50;91.10;;;;;;5096999;28;20833;-72
2021/03/17 02:56:31;;;;;;;5.67;5.17;;;7.50;91.20;;;;;;5096551;28;20439;-72
2021/03/17 02:58:59;;;;;;;5.97;5.47;;;7.50;91.30;;;;;;5096666;28;20451;-72
2021/03/17 03:01:28;;;;;;;7.30;6.07;;;7.50;91.40;;;;;;5096739;28;20447;-72
2021/03/17 03:03:54;;;;;;;7.57;6.43;;;7.50;91.60;;;;;;5096678;28;20504;-72
2021/03/17 03:06:22;;;;;;;7.50;6.70;;;7.40;91.60;;;;;;5096355;28;20879;-72
2021/03/17 03:08:49;;;;;;;8.00;6.23;;;7.40;91.90;;;;;;5096543;28;20479;-72
2021/03/17 03:11:16;;;;;;;7.60;6.90;;;7.40;92.00;;;;;;5096662;28;20468;-72
2021/03/17 03:13:44;;;;;;;8.00;7.20;;;7.30;92.00;;;;;;5096698;28;20455;-72
2021/03/17 03:16:12;;;;;;;9.47;7.83;;;7.30;92.10;;;;;;5096456;28;20440;-72
2021/03/17 03:18:39;;;;;;;8.80;7.60;;;7.40;92.10;;;;;;5096592;28;20443;-72
2021/03/17 03:21:07;;;;;;;8.03;7.20;;;7.30;92.00;;;;;;5096327;28;20474;-72
2021/03/17 03:23:36;;;;;;;8.60;6.97;;;7.30;92.00;;;;;;5096358;28;20444;-72
2021/03/17 03:26:03;;;;;;;8.47;7.63;;;7.30;92.10;;;;;;5096198;28;20447;-72
2021/03/17 03:28:32;;;;;;;8.50;7.70;;;7.30;92.20;;;;;;5096158;28;20471;-72
2021/03/17 03:30:59;;;;;;;7.80;7.10;;;7.30;92.30;;;;;;5096069;28;20479;-72
2021/03/17 03:33:26;;;;;;;8.10;7.30;;;7.30;92.30;;;;;;5096112;28;20455;-72
2021/03/17 03:35:52;;;;;;;6.23;5.73;;;7.30;92.30;;;;;;5096107;28;20439;-72
2021/03/17 03:38:20;;;;;;;7.20;6.57;;;7.30;92.20;;;;;;5096068;28;20443;-72
2021/03/17 03:40:47;;;;;;;6.17;5.67;;;7.20;92.10;;;;;;5095917;28;20471;-72
2021/03/17 03:43:14;;;;;;;7.40;6.70;;;7.10;92.20;;;;;;5095975;28;20840;-72
2021/03/17 03:45:41;;;;;;;6.87;6.03;;;7.10;92.40;;;;;;5095871;28;20444;-72
2021/03/17 03:48:08;;;;;;;5.17;4.67;;;7.10;92.50;;;;;;5095478;28;20475;-72
2021/03/17 03:50:38;;;;;;;6.60;5.40;;;7.10;92.30;;;;;;5095461;28;20830;-72
2021/03/17 03:53:12;;;;;;;5.10;4.70;;;7.10;92.40;;;;;;5095676;28;20471;-72
2021/03/17 03:55:50;;;;;;;6.03;5.43;;;7.10;92.40;;;;;;5095774;28;20431;-72
2021/03/17 03:58:26;;;;;;;5.97;4.97;;;7.10;92.20;;;;;;5095382;28;20917;-72
2021/03/17 04:00:54;;;;;;;6.30;4.70;;;7.10;92.30;;;;;;5095565;28;20475;-72
2021/03/17 04:03:23;;;;;;;4.70;4.30;;;7.00;92.30;;;;;;5095533;28;20432;-72
2021/03/17 04:05:53;;;;;;;4.73;4.33;;;7.00;92.40;;;;;;5095265;28;20516;-72
2021/03/17 04:08:20;;;;;;;4.97;4.57;;;7.00;92.40;;;;;;5095040;28;21004;-72
2021/03/17 04:10:55;;;;;;;4.40;4.00;;;7.00;92.40;;;;;;5095314;28;20460;-72
2021/03/17 04:13:23;;;;;;;5.03;4.33;;;7.00;92.50;;;;;;5096234;28;20755;-72
2021/03/17 04:15:50;;;;;;;5.47;5.00;;;7.10;92.60;;;;;;5095302;28;20454;-72
2021/03/17 04:18:18;;;;;;;4.70;4.30;;;7.20;92.60;;;;;;5094850;28;20792;-72
2021/03/17 04:20:48;;;;;;;4.17;3.77;;;7.20;92.60;;;;;;5095101;28;20536;-72
2021/03/17 04:23:16;;;;;;;5.20;4.80;;;7.20;92.40;;;;;;5095110;28;20439;-72
2021/03/17 04:25:46;;;;;;;4.93;4.53;;;7.30;92.40;;;;;;5094782;28;20930;-72
2021/03/17 04:28:17;;;;;;;4.93;4.53;;;7.30;92.30;;;;;;5094941;28;20475;-72
2021/03/17 04:30:44;;;;;;;4.70;3.87;;;7.30;92.20;;;;;;5096080;28;20459;-72
2021/03/17 04:33:11;;;;;;;5.30;4.80;;;7.30;92.10;;;;;;5094939;28;20455;-72
2021/03/17 04:35:38;;;;;;;5.63;5.13;;;7.30;92.10;;;;;;5094562;28;20520;-72
2021/03/17 04:38:05;;;;;;;4.70;4.30;;;7.30;92.00;;;;;;5094822;28;20584;-72
2021/03/17 04:40:32;;;;;;;5.80;5.30;;;7.30;92.00;;;;;;5094778;28;20475;-72
2021/03/17 04:42:58;;;;;;;5.83;5.33;;;7.30;92.00;;;;;;5094482;28;20937;-72
2021/03/17 04:45:26;;;;;;;6.10;4.73;;;7.30;92.10;;;;;;5094770;28;20441;-72
2021/03/17 04:47:54;;;;;;;6.27;5.67;;;7.20;92.10;;;;;;5094594;28;20480;-72
2021/03/17 04:50:23;;;;;;;6.47;5.90;;;7.20;92.00;;;;;;5094581;28;20466;-72
2021/03/17 04:52:50;;;;;;;6.23;5.70;;;7.20;92.10;;;;;;5094586;28;20482;-72
2021/03/17 04:55:16;;;;;;;5.57;5.07;;;7.10;92.00;;;;;;5094479;28;20440;-72
2021/03/17 04:57:44;;;;;;;6.50;5.90;;;7.00;92.10;;;;;;5094508;28;20447;-72
2021/03/17 05:00:13;;;;;;;6.37;5.77;;;7.00;92.10;;;;;;5094053;28;20989;-72
2021/03/17 05:02:44;;;;;;;6.03;5.53;;;7.00;92.20;;;;;;5094425;28;20456;-72
2021/03/17 05:05:11;;;;;;;6.30;5.73;;;7.00;92.30;;;;;;5093735;28;20431;-72
2021/03/17 05:07:39;;;;;;;5.67;5.10;;;7.00;92.40;;;;;;5093953;28;20985;-72
2021/03/17 05:10:07;;;;;;;5.53;5.03;;;7.00;92.40;;;;;;5094158;28;20460;-72
2021/03/17 05:12:33;;;;;;;6.90;6.30;;;6.90;92.50;;;;;;5093906;28;20948;-72
2021/03/17 05:15:00;;;;;;;5.93;5.43;;;7.00;92.50;;;;;;5094219;28;20443;-72
2021/03/17 05:17:28;;;;;;;5.30;4.80;;;7.00;92.60;;;;;;5093821;28;20825;-72
2021/03/17 05:19:55;;;;;;;7.20;6.50;;;6.90;92.60;;;;;;5093710;28;20472;-72
2021/03/17 05:22:22;;;;;;;7.03;6.43;;;6.90;92.60;;;;;;5094098;28;20428;-73
2021/03/17 05:24:48;;;;;;;7.47;6.33;;;6.90;92.70;;;;;;5094062;28;20444;-73
2021/03/17 05:27:19;;;;;;;6.40;5.80;;;6.90;92.70;;;;;;5093631;28;20478;-72
2021/03/17 05:29:46;;;;;;;6.77;5.97;;;6.90;92.80;;;;;;5094104;28;20475;-72
2021/03/17 05:32:14;;;;;;;7.23;6.50;;;6.90;92.80;;;;;;5093843;28;20787;-72
2021/03/17 05:34:56;;;;;;;10.33;6.03;;;6.90;92.80;;;;;;5093756;28;20436;-72
2021/03/17 05:37:23;;;;;;;6.60;5.87;;;6.90;92.90;;;;;;5093871;28;20428;-72
2021/03/17 05:39:49;;;;;;;6.33;5.73;;;6.80;92.90;;;;;;5093747;28;20466;-72
2021/03/17 05:42:16;;;;;;;7.50;6.53;;;6.80;92.90;;;;;;5093774;28;20788;-72
2021/03/17 05:44:42;;;;;;;5.93;5.33;;;6.80;93.00;;;;;;5093704;28;20531;-72
2021/03/17 05:47:09;;;;;;;7.07;6.37;;;6.80;93.10;;;;;;5093634;28;20475;-72
2021/03/17 05:49:37;;;;;;;7.43;6.63;;;6.70;93.20;;;;;;5093666;28;20459;-72
2021/03/17 05:52:06;;;;;;;6.37;5.77;;;6.80;93.30;;;;;;5093655;28;20447;-72
2021/03/17 05:54:33;;;;;;;7.90;6.70;;;6.70;93.30;;;;;;5093702;28;20455;-72
2021/03/17 05:57:01;;;;;;;6.30;5.70;;;6.80;93.80;;;;;;5093610;28;20497;-72
2021/03/17 05:59:27;;;;;;;7.03;6.13;;;6.80;93.40;;;;;;5093226;28;21030;-72
2021/03/17 06:01:54;;;;;;;7.10;6.40;;;6.80;93.50;;;;;;5093234;28;20901;-72
2021/03/17 06:04:21;;;;;;;6.17;5.43;;;6.80;93.60;;;;;;5093510;28;20869;-72
2021/03/17 06:06:50;;;;;;;6.90;6.20;;;6.80;93.60;;;;;;5093122;28;20451;-72
2021/03/17 06:09:20;;;;;;;8.00;7.30;;;6.80;93.60;;;;;;5093643;28;20502;-71
2021/03/17 06:11:49;;;;;;;8.50;7.63;;;6.80;93.60;;;;;;5093403;28;20428;-72
2021/03/17 06:14:18;;;;;;;8.57;7.77;;;6.80;93.60;;;;;;5093393;28;20956;-72
2021/03/17 06:16:45;;;;;;;8.87;8.00;;;6.80;93.70;;;;;;5095622;28;20434;-72
2021/03/17 06:19:14;;;;;;;9.43;7.40;;;6.80;93.80;;;;;;5097441;28;20497;-72
2021/03/17 06:21:41;;;;;;;9.30;8.30;;;6.80;93.80;;;;;;5097454;28;20435;-72
2021/03/17 06:24:10;;;;;;;9.70;8.70;;;6.80;94.00;;;;;;5097948;28;20489;-72
2021/03/17 06:26:38;;;;;;;9.50;8.60;;;6.80;94.10;;;;;;5097403;28;20439;-72
2021/03/17 06:29:04;;;;;;;9.00;8.10;;;6.80;94.10;;;;;;5097203;28;20518;-72
2021/03/17 06:31:31;;;;;;;9.33;8.33;;;6.80;94.10;;;;;;5097030;28;20987;-72
2021/03/17 06:33:58;;;;;;;9.77;8.77;;;6.80;94.20;;;;;;5097291;28;20454;-72
2021/03/17 06:36:25;;;;;;;9.77;8.77;;;6.90;94.30;;;;;;5097239;28;20493;-72
2021/03/17 06:39:04;;;;;;;10.60;9.70;;;6.90;94.30;;;;;;5097250;28;20440;-72
2021/03/17 06:41:44;;;;;;;13.63;12.40;;;7.00;94.30;;;;;;5097143;28;20931;-72
2021/03/17 06:44:10;;;;;;;10.37;9.30;;;7.00;94.20;;;;;;5097143;28;20428;-72
2021/03/17 06:46:36;;;;;;;11.97;10.83;;;7.00;94.20;;;;;;5097045;28;20447;-72
2021/03/17 06:49:03;;;;;;;9.60;8.70;;;7.00;94.20;;;;;;5096906;28;20497;-72
2021/03/17 06:51:31;;;;;;;10.20;9.13;;;7.10;94.20;;;;;;5096929;28;20444;-72
2021/03/17 06:53:59;;;;;;;10.73;9.73;;;7.10;94.10;;;;;;5096888;28;20444;-72
2021/03/17 06:56:27;;;;;;;9.47;8.50;;;7.10;94.10;;;;;;5098147;28;20492;-72
2021/03/17 06:58:56;;;;;;;10.50;9.50;;;7.10;94.10;;;;;;5098162;28;20439;-72
2021/03/17 07:01:35;;;;;;;8.70;7.90;;;7.20;94.20;;;;;;5097131;28;20432;-72
2021/03/17 07:04:03;;;;;;;9.17;8.27;;;7.20;94.10;;;;;;5097133;28;20431;-72
2021/03/17 07:06:30;;;;;;;9.17;8.30;;;7.30;94.20;;;;;;5096663;28;20459;-72
2021/03/17 07:08:57;;;;;;;8.83;8.10;;;7.30;94.00;;;;;;5096576;28;20479;-72
2021/03/17 07:11:25;;;;;;;8.33;7.63;;;7.40;93.90;;;;;;5096887;28;20549;-72
2021/03/17 07:13:57;;;;;;;7.23;6.63;;;7.40;93.70;;;;;;5096658;28;20424;-72
2021/03/17 07:16:34;;;;;;;8.10;7.37;;;7.50;93.60;;;;;;5096758;28;20443;-72
2021/03/17 07:19:02;;;;;;;6.73;6.13;;;7.50;93.40;;;;;;5096392;28;20424;-73
2021/03/17 07:21:33;;;;;;;6.57;6.07;;;7.60;93.30;;;;;;5096435;28;20440;-72
2021/03/17 07:24:00;;;;;;;6.67;6.00;;;7.60;93.10;;;;;;5096422;28;20443;-72
2021/03/17 07:26:27;;;;;;;8.23;7.43;;;7.60;93.00;;;;;;5095817;28;20796;-72
2021/03/17 07:29:15;;;;;;;8.07;7.27;;;7.60;93.10;;;;;;5095938;28;20509;-72
2021/03/17 07:31:44;;;;;;;6.67;5.60;;;7.60;93.10;;;;;;5095858;28;20992;-72
2021/03/17 07:34:16;;;;;;;5.80;5.17;;;7.60;92.80;;;;;;5096115;28;20432;-72
2021/03/17 07:36:46;;;;;;;5.80;5.30;;;7.60;92.70;;;;;;5096055;28;20428;-72
2021/03/17 07:39:15;;;;;;;5.47;4.97;;;7.60;92.90;;;;;;5096339;28;20474;-72
2021/03/17 07:41:43;;;;;;;5.10;4.60;;;7.60;93.00;;;;;;5095971;28;20436;-72
2021/03/17 07:44:13;;;;;;;5.50;5.00;;;7.70;93.10;;;;;;5095926;28;20440;-72
2021/03/17 07:46:41;;;;;;;5.90;4.90;;;7.70;93.00;;;;;;5095962;28;20425;-72
2021/03/17 07:49:08;;;;;;;5.30;4.10;;;7.80;93.00;;;;;;5095697;28;20467;-72
2021/03/17 07:51:40;;;;;;;8.03;5.13;;;7.80;92.80;;;;;;5095771;28;20427;-72
2021/03/17 07:54:08;;;;;;;6.20;4.37;;;7.80;92.80;;;;;;5095502;28;20890;-71
2021/03/17 07:56:37;;;;;;;6.33;4.37;;;7.80;92.70;;;;;;5095693;28;20565;-71
2021/03/17 07:59:04;;;;;;;4.20;3.90;;;7.80;92.80;;;;;;5095643;28;20436;-71
2021/03/17 08:01:32;;;;;;;3.20;2.73;;;7.80;92.70;;;;;;5095898;28;20432;-71
2021/03/17 08:04:00;;;;;;;5.30;2.70;;;7.80;92.50;;;;;;5095240;28;20440;-71
2021/03/17 08:06:26;;;;;;;3.60;3.30;;;7.80;92.40;;;;;;5095331;28;20452;-71
2021/03/17 08:08:57;;;;;;;5.93;5.33;;;7.70;92.30;;;;;;5095476;28;20488;-71
2021/03/17 08:11:25;;;;;;;8.20;7.30;;;7.70;92.30;;;;;;5095419;28;20435;-71
2021/03/17 08:13:52;;;;;;;9.50;8.53;;;7.80;92.50;;;;;;5095048;28;20821;-71
2021/03/17 08:16:21;;;;;;;10.70;9.40;;;7.70;92.40;;;;;;5095343;28;20436;-71
2021/03/17 08:18:50;;;;;;;5.73;5.13;;;7.70;92.70;;;;;;5095290;28;20473;-71
2021/03/17 08:21:44;;;;;;;4.80;4.20;;;7.80;92.90;;;;;;5095143;28;20460;-72
2021/03/17 08:24:11;;;;;;;4.07;3.73;;;7.90;92.40;;;;;;5095249;28;20440;-71
2021/03/17 08:26:45;;;;;;;7.50;5.00;;;7.80;91.70;;;;;;5095143;28;20451;-70
2021/03/17 08:29:14;;;;;;;7.13;5.80;;;7.90;91.60;;;;;;5094973;28;20521;-72
2021/03/17 08:31:52;;;;;;;7.60;6.63;;;8.00;91.50;;;;;;5094951;28;20807;-72
2021/03/17 08:34:24;;;;;;;5.57;4.67;;;8.10;91.70;;;;;;5094984;28;20452;-72
2021/03/17 08:36:51;;;;;;;4.10;3.70;;;8.30;91.50;;;;;;5094997;28;20424;-72
2021/03/17 08:39:53;;;;;;;6.30;5.70;;;8.40;91.40;;;;;;5094026;28;20473;-72
2021/03/17 08:42:30;;;;;;;8.57;6.33;;;8.60;91.00;;;;;;5089323;28;20953;-72
2021/03/17 08:44:58;;;;;;;4.57;4.17;;;8.70;90.60;;;;;;5095527;28;20428;-72
2021/03/17 08:47:31;;;;;;;3.40;2.20;;;8.90;90.20;;;;;;5094286;28;20968;-73
2021/03/17 08:50:17;;;;;;;4.33;2.40;;;9.10;90.10;;;;;;5094610;28;20472;-73
2021/03/17 08:52:48;;;;;;;1.70;1.40;;;9.30;89.70;;;;;;5094576;28;20432;-73
2021/03/17 08:55:15;;;;;;;4.90;1.40;;;9.50;88.10;;;;;;5094556;28;20425;-72
2021/03/17 08:57:56;;;;;;;3.90;1.90;;;9.60;85.20;;;;;;5094562;28;20439;-72
2021/03/17 09:01:03;;;;;;;3.50;1.60;;;9.80;84.00;;;;;;5094360;28;20495;-72
2021/03/17 09:03:45;;;;;;;3.33;1.70;;;9.90;84.60;;;;;;5094508;28;20445;-73
2021/03/17 09:06:17;;;;;;;2.83;1.20;;;10.10;82.50;;;;;;5094232;28;20508;-74
2021/03/17 09:08:59;;;;;;;1.43;1.33;;;10.00;80.10;;;;;;5094527;28;20525;-73
2021/03/17 09:11:58;;;;;;;4.07;1.20;;;9.80;82.40;;;;;;5094445;28;20428;-72
2021/03/17 09:14:32;;;;;;;2.73;1.20;;;9.80;81.30;;;;;;5094323;28;20442;-73
2021/03/17 09:17:13;;;;;;;3.07;1.67;;;9.90;79.60;;;;;;5094510;28;20435;-73
2021/03/17 09:20:17;;;;;;;5.90;1.10;;;10.00;76.70;;;;;;5094157;28;20470;-73
2021/03/17 09:22:47;;;;;;;1.83;1.00;;;10.00;76.90;;;;;;5093828;28;20947;-72
2021/03/17 09:25:17;;;;;;;5.93;1.80;;;10.10;77.20;;;;;;5093927;28;20906;-73
2021/03/17 09:27:45;;;;;;;5.37;1.40;;;10.20;78.20;;;;;;5093642;28;20460;-71
2021/03/17 09:30:13;;;;;;;2.10;1.83;;;10.30;78.00;;;;;;5093958;28;20535;-72
2021/03/17 09:32:40;;;;;;;2.20;1.70;;;10.40;77.40;;;;;;5093619;28;20454;-72
2021/03/17 09:35:07;;;;;;;1.80;0.90;;;10.20;74.70;;;;;;5093578;28;20850;-72
2021/03/17 09:37:34;;;;;;;1.23;1.00;;;10.00;74.70;;;;;;5094059;28;20447;-72
2021/03/17 09:40:01;;;;;;;1.53;0.97;;;10.00;75.50;;;;;;5093837;28;20463;-72
2021/03/17 09:42:27;;;;;;;3.80;1.13;;;10.00;76.40;;;;;;5093655;28;20906;-71
2021/03/17 09:44:56;;;;;;;1.87;1.10;;;10.10;77.10;;;;;;5093830;28;20439;-72
2021/03/17 09:47:27;;;;;;;2.90;1.40;;;10.20;77.80;;;;;;5094661;28;20929;-72
2021/03/17 09:49:54;;;;;;;3.83;1.30;;;10.30;78.80;;;;;;5094846;28;20537;-72
2021/03/17 09:52:21;;;;;;;1.70;1.20;;;10.50;77.70;;;;;;5094993;28;20431;-72
2021/03/17 09:54:47;;;;;;;3.37;1.50;;;10.70;79.50;;;;;;5094014;28;20946;-72
2021/03/17 09:57:14;;;;;;;4.43;2.20;;;11.00;78.60;;;;;;5093959;28;20436;-72
2021/03/17 09:59:42;;;;;;;1.33;1.10;;;11.20;73.40;;;;;;5093404;28;20467;-72
2021/03/17 10:02:11;;;;;;;2.70;1.90;;;11.30;71.20;;;;;;5093535;28;20898;-72
2021/03/17 10:04:42;;;;;;;1.80;1.30;;;11.20;71.50;;;;;;5093765;28;20515;-72
2021/03/17 10:07:10;;;;;;;3.40;1.53;;;11.20;70.90;;;;;;5093608;28;20454;-73
2021/03/17 10:09:37;;;;;;;3.53;2.60;;;11.10;70.00;;;;;;5093393;28;20502;-72
2021/03/17 10:12:06;;;;;;;3.00;1.20;;;11.00;67.90;;;;;;5094183;28;20444;-73
2021/03/17 10:14:37;;;;;;;3.17;1.07;;;10.90;69.30;;;;;;5093783;28;20432;-73
2021/03/17 10:17:05;;;;;;;1.63;0.93;;;10.90;69.20;;;;;;5093550;28;20439;-73
2021/03/17 10:19:32;;;;;;;5.40;1.40;;;10.90;68.80;;;;;;5093396;28;20516;-73
2021/03/17 10:21:59;;;;;;;1.97;1.50;;;10.90;68.90;;;;;;5093403;28;20444;-73
2021/03/17 10:24:36;;;;;;;3.00;2.00;;;10.90;68.00;;;;;;5093497;28;20440;-73
2021/03/17 10:27:05;;;;;;;9.10;3.30;;;10.90;68.40;;;;;;5093004;28;20796;-73
2021/03/17 10:29:31;;;;;;;3.00;2.20;;;10.90;67.40;;;;;;5092945;28;21100;-73
2021/03/17 10:31:59;;;;;;;6.00;4.60;;;10.80;65.70;;;;;;5093288;28;20812;-73
2021/03/17 10:34:27;;;;;;;11.93;4.83;;;10.80;66.70;;;;;;5093316;28;20444;-73
2021/03/17 10:36:54;;;;;;;4.20;3.00;;;11.00;67.90;;;;;;5092977;28;20954;-71
2021/03/17 10:39:30;;;;;;;4.70;2.70;;;11.40;67.80;;;;;;5093270;28;20464;-72
2021/03/17 10:41:57;;;;;;;3.97;2.70;;;11.80;66.50;;;;;;5093319;28;20432;-72
2021/03/17 10:44:25;;;;;;;2.17;1.90;;;12.30;62.30;;;;;;5093284;28;20450;-72
2021/03/17 10:46:57;;;;;;;1.47;0.97;;;12.90;60.90;;;;;;5093137;28;20477;-74
2021/03/17 10:49:24;;;;;;;2.10;1.00;;;13.20;59.60;;;;;;5093211;28;20536;-73
2021/03/17 10:51:51;;;;;;;7.07;5.20;;;13.10;56.60;;;;;;5092866;28;20443;-74
2021/03/17 10:54:27;;;;;;;9.00;5.13;;;13.00;56.30;;;;;;5093034;28;20854;-73
2021/03/17 10:56:53;;;;;;;3.27;2.00;;;13.10;54.50;;;;;;5092803;28;20435;-73
2021/03/17 10:59:24;;;;;;;4.23;2.10;;;13.20;55.00;;;;;;5092994;28;20440;-73
2021/03/17 11:02:10;;;;;;;9.20;6.33;;;13.30;55.60;;;;;;5093659;28;20427;-73
2021/03/17 11:04:37;;;;;;;3.90;2.70;;;13.50;54.70;;;;;;5096280;28;20945;-73
2021/03/17 11:07:04;;;;;;;8.20;3.60;;;13.60;55.20;;;;;;5096657;28;20466;-73
2021/03/17 11:09:38;;;;;;;2.30;1.97;;;13.60;53.70;;;;;;5096611;28;20507;-73
2021/03/17 11:12:11;;;;;;;1.70;1.47;;;13.70;54.70;;;;;;5096760;28;20442;-73
2021/03/17 11:14:38;;;;;;;5.67;1.60;;;13.80;53.70;;;;;;5096595;28;20432;-73
2021/03/17 11:17:05;;;;;;;4.20;1.50;;;14.10;54.00;;;;;;5096474;28;20443;-73
2021/03/17 11:19:31;;;;;;;3.07;1.23;;;14.40;53.30;;;;;;5096106;28;20942;-73
2021/03/17 11:21:58;;;;;;;3.40;1.70;;;14.80;53.40;;;;;;5096373;28;20448;-73
2021/03/17 11:24:24;;;;;;;3.17;2.67;;;15.00;52.30;;;;;;5096319;28;20447;-73
2021/03/17 11:26:51;;;;;;;4.03;3.33;;;15.00;50.40;;;;;;5096278;28;20447;-73
2021/03/17 11:29:19;;;;;;;5.37;2.80;;;14.90;50.00;;;;;;5095765;28;20467;-73
2021/03/17 11:31:47;;;;;;;3.87;3.57;;;14.60;49.60;;;;;;5096284;28;20480;-73
2021/03/17 11:34:15;;;;;;;4.50;3.30;;;14.40;51.20;;;;;;5095816;28;20424;-73
2021/03/17 11:36:41;;;;;;;2.63;1.90;;;14.50;51.40;;;;;;5095820;28;20933;-73
2021/03/17 11:39:11;;;;;;;5.03;1.20;;;15.00;52.30;;;;;;5096072;28;20447;-73
2021/03/17 11:41:39;;;;;;;2.40;1.60;;;15.80;49.80;;;;;;5096081;28;20432;-72
2021/03/17 11:44:06;;;;;;;3.70;2.73;;;16.10;45.40;;;;;;5095703;28;20427;-72
2021/03/17 11:46:32;;;;;;;4.73;2.70;;;16.00;45.20;;;;;;5095934;28;20453;-71
2021/03/17 11:48:59;;;;;;;4.50;3.70;;;15.80;46.50;;;;;;5095802;28;20476;-73
2021/03/17 11:51:25;;;;;;;5.50;4.63;;;15.50;47.50;;;;;;5095772;28;20463;-74
2021/03/17 11:53:52;;;;;;;5.87;3.60;;;15.20;47.40;;;;;;5095867;28;20451;-72
2021/03/17 11:56:19;;;;;;;3.27;2.30;;;14.80;48.50;;;;;;5095775;28;20432;-74
2021/03/17 11:58:46;;;;;;;4.57;2.80;;;14.50;48.70;;;;;;5095778;28;20424;-75
2021/03/17 12:01:12;;;;;;;3.93;3.50;;;14.20;50.00;;;;;;5095605;28;20464;-74
2021/03/17 12:03:41;;;;;;;3.87;3.27;;;14.10;50.60;;;;;;5095687;28;20423;-73
2021/03/17 12:06:07;;;;;;;4.17;3.47;;;14.10;49.70;;;;;;5095505;28;20539;-72
2021/03/17 12:08:34;;;;;;;6.73;5.10;;;14.50;48.70;;;;;;5095074;28;20858;-72
2021/03/17 12:11:00;;;;;;;4.47;3.33;;;15.10;47.90;;;;;;5095374;28;20486;-72
2021/03/17 12:13:27;;;;;;;3.80;3.00;;;15.20;47.60;;;;;;5094504;28;20448;-74
2021/03/17 12:15:54;;;;;;;2.30;1.40;;;15.50;48.70;;;;;;5095183;28;20506;-74
2021/03/17 12:18:21;;;;;;;5.80;0.90;;;15.40;48.10;;;;;;5095049;28;20477;-74
2021/03/17 12:20:47;;;;;;;2.50;1.67;;;15.20;49.40;;;;;;5095259;28;20822;-72
2021/03/17 12:23:14;;;;;;;2.60;1.23;;;14.90;50.00;;;;;;5094998;28;20910;-72
2021/03/17 12:25:41;;;;;;;2.60;2.40;;;14.50;49.60;;;;;;5095244;28;20803;-74
2021/03/17 12:28:08;;;;;;;4.10;2.50;;;14.00;49.30;;;;;;5095103;28;20464;-72
2021/03/17 12:30:35;;;;;;;4.97;3.37;;;13.40;50.00;;;;;;5095043;28;20471;-73
2021/03/17 12:33:02;;;;;;;3.17;1.90;;;13.20;51.40;;;;;;5095073;28;20518;-74
2021/03/17 12:35:28;;;;;;;3.67;2.50;;;13.90;51.00;;;;;;5095059;28;20433;-73
2021/03/17 12:37:55;;;;;;;3.60;1.47;;;14.40;48.40;;;;;;5094840;28;20886;-72
2021/03/17 12:40:23;;;;;;;3.53;1.53;;;15.20;47.50;;;;;;5094782;28;20525;-72
2021/03/17 12:42:50;;;;;;;4.47;1.43;;;16.60;44.70;;;;;;5095154;28;20439;-74
2021/03/17 12:45:19;;;;;;;3.33;0.97;;;16.90;39.00;;;;;;5094529;28;20898;-74
2021/03/17 12:47:46;;;;;;;5.33;1.63;;;16.50;41.10;;;;;;5094731;28;20480;-74
2021/03/17 12:50:16;;;;;;;3.90;1.30;;;16.20;41.50;;;;;;5094395;28;20814;-73
2021/03/17 12:52:42;;;;;;;4.13;1.33;;;15.90;41.10;;;;;;5094668;28;20982;-74
2021/03/17 12:55:10;;;;;;;3.37;1.23;;;15.40;40.70;;;;;;5094789;28;20455;-72
2021/03/17 12:57:36;;;;;;;2.40;1.20;;;15.00;41.80;;;;;;5094693;28;20923;-71
2021/03/17 13:00:05;;;;;;;4.37;1.20;;;14.70;42.90;;;;;;5094569;28;20464;-72
2021/03/17 13:02:31;;;;;;;2.90;1.10;;;14.40;42.60;;;;;;5094682;28;20439;-72
2021/03/17 13:04:58;;;;;;;7.33;1.50;;;14.10;43.80;;;;;;5094408;28;20432;-71